Time;durP1;ratioP1;P1;durP2;ratioP2;P2;SDS_P1;SDS_P2;PMS_P1;PMS_P2;Temp;Humidity;BMP_temperature;BMP_pressure;BME280_temperature;BME280_humidity;BME280_pressure;Samples;Min_cycle;Max_cycle;Signal;HPM_P1;HPM_P2
2023/07/27 00:02:25;;;;;;;8.15;5.40;;;;;;;15.35;82.39;100931.16;6075026;23;20372;-69
2023/07/27 00:04:51;;;;;;;7.00;5.22;;;;;;;15.38;82.64;100929.28;6100447;23;20097;-69
2023/07/27 00:07:17;;;;;;;8.88;5.20;;;;;;;15.35;83.69;100931.16;6124127;23;20010;-69
2023/07/27 00:09:42;;;;;;;9.23;5.75;;;;;;;15.27;84.82;100925.22;6123782;23;20016;-68
2023/07/27 00:12:08;;;;;;;7.68;5.38;;;;;;;15.32;84.31;100926.81;6098795;23;20013;-69
2023/07/27 00:14:33;;;;;;;8.82;6.03;;;;;;;15.29;85.09;100924.28;6099791;23;20112;-69
2023/07/27 00:16:59;;;;;;;7.22;5.40;;;;;;;15.27;85.34;100930.50;6074762;23;20083;-69
2023/07/27 00:19:24;;;;;;;9.82;6.45;;;;;;;15.22;85.67;100920.94;6098770;23;20021;-69
2023/07/27 00:21:50;;;;;;;8.02;5.13;;;;;;;15.17;86.24;100925.53;6075353;23;20013;-69
2023/07/27 00:24:15;;;;;;;6.72;5.35;;;;;;;15.26;86.06;100919.09;6075847;23;20012;-68
2023/07/27 00:26:41;;;;;;;9.20;6.00;;;;;;;15.14;86.68;100919.44;6099042;23;20014;-68
2023/07/27 00:29:07;;;;;;;9.38;5.88;;;;;;;15.24;86.24;100918.25;6074998;23;20014;-68
2023/07/27 00:31:33;;;;;;;7.47;5.40;;;;;;;15.14;86.32;100916.81;6099415;23;20006;-68
2023/07/27 00:33:58;;;;;;;7.72;5.38;;;;;;;15.17;85.70;100907.03;6075577;23;20014;-68
2023/07/27 00:36:24;;;;;;;9.25;5.95;;;;;;;15.16;86.26;100910.59;6075785;23;20361;-69
2023/07/27 00:38:49;;;;;;;8.35;5.40;;;;;;;15.13;87.12;100904.50;6099658;23;20010;-69
2023/07/27 00:41:15;;;;;;;8.50;5.82;;;;;;;15.15;86.61;100903.56;6075202;23;20018;-69
2023/07/27 00:43:40;;;;;;;8.73;5.50;;;;;;;15.08;87.68;100899.38;6099914;23;20026;-68
2023/07/27 00:46:06;;;;;;;7.05;5.30;;;;;;;15.13;87.24;100907.16;6098896;23;20014;-68
2023/07/27 00:48:32;;;;;;;8.15;5.50;;;;;;;15.09;87.69;100895.00;6074938;23;20006;-68
2023/07/27 00:50:58;;;;;;;8.48;5.70;;;;;;;15.04;88.11;100892.47;6124117;23;20006;-68
2023/07/27 00:53:24;;;;;;;8.68;6.15;;;;;;;15.12;88.85;100893.09;6099916;23;20101;-68
2023/07/27 00:55:49;;;;;;;8.77;5.78;;;;;;;15.07;88.82;100887.97;6124063;23;20424;-68
2023/07/27 00:58:15;;;;;;;8.70;5.93;;;;;;;15.02;89.64;100881.09;6099279;23;20017;-68
2023/07/27 01:00:44;;;;;;;7.38;5.22;;;;;;;15.17;89.14;100880.66;6074521;23;20072;-68
2023/07/27 01:03:10;;;;;;;8.20;5.53;;;;;;;15.08;90.40;100878.25;6100342;23;20084;-68
2023/07/27 01:05:37;;;;;;;7.68;5.65;;;;;;;15.03;90.27;100865.22;6098898;23;20352;-68
2023/07/27 01:08:03;;;;;;;8.07;5.35;;;;;;;15.06;89.19;100859.84;6123653;23;20005;-68
2023/07/27 01:11:02;;;;;;;10.57;6.40;;;;;;;15.06;89.83;100859.84;6098518;23;20061;-68
2023/07/27 01:13:48;;;;;;;7.65;6.15;;;;;;;15.00;90.04;100854.75;6122890;23;20091;-68
2023/07/27 01:16:21;;;;;;;7.30;5.63;;;;;;;15.02;89.45;100854.72;6123794;23;20006;-68
2023/07/27 01:19:09;;;;;;;9.13;6.20;;;;;;;14.98;90.27;100848.66;6123027;23;20069;-68
2023/07/27 01:21:42;;;;;;;8.35;6.57;;;;;;;14.85;90.82;100842.88;6124865;23;20002;-68
2023/07/27 01:24:36;;;;;;;8.05;6.03;;;;;;;14.91;90.49;100844.47;6122985;23;20006;-68
2023/07/27 01:27:27;;;;;;;9.10;5.80;;;;;;;14.87;90.88;100842.84;6123489;23;20012;-68
2023/07/27 01:30:29;;;;;;;13.13;6.88;;;;;;;14.87;91.09;100837.56;6121875;23;20009;-68
2023/07/27 01:33:16;;;;;;;9.45;6.55;;;;;;;14.84;91.14;100827.97;6121561;23;20081;-68
2023/07/27 01:36:09;;;;;;;7.97;6.30;;;;;;;14.76;91.65;100839.66;6123962;23;20033;-68
2023/07/27 01:38:37;;;;;;;9.52;6.90;;;;;;;14.63;92.54;100832.09;6108188;23;20017;-68
2023/07/27 01:41:05;;;;;;;7.30;5.97;;;;;;;14.59;93.01;100826.91;6123865;23;20058;-69
2023/07/27 01:43:31;;;;;;;9.45;6.75;;;;;;;14.50;93.35;100818.34;6123810;23;20045;-69
2023/07/27 01:45:58;;;;;;;9.90;7.00;;;;;;;14.40;94.34;100808.97;6098405;23;20014;-69
2023/07/27 01:48:26;;;;;;;10.63;7.10;;;;;;;14.38;94.13;100816.09;6099425;23;20013;-69
2023/07/27 01:50:53;;;;;;;8.35;6.93;;;;;;;14.33;94.86;100805.66;6099157;23;20022;-69
2023/07/27 01:53:21;;;;;;;10.15;7.53;;;;;;;14.27;95.67;100808.47;6101323;23;20326;-69
2023/07/27 01:55:47;;;;;;;10.90;7.40;;;;;;;14.18;96.60;100801.69;6077293;23;20009;-69
2023/07/27 01:58:16;;;;;;;9.82;7.40;;;;;;;14.17;96.91;100807.84;6101378;23;20010;-69
2023/07/27 02:00:42;;;;;;;9.77;7.53;;;;;;;14.16;97.37;100797.34;6123968;23;20006;-69
2023/07/27 02:03:09;;;;;;;9.05;7.65;;;;;;;14.07;97.90;100793.19;6076316;23;20010;-69
2023/07/27 02:05:34;;;;;;;10.02;7.88;;;;;;;14.04;98.29;100791.50;6124148;23;20002;-69
2023/07/27 02:08:00;;;;;;;8.65;7.78;;;;;;;14.02;99.07;100784.53;6101079;23;20014;-69
2023/07/27 02:10:28;;;;;;;9.63;7.57;;;;;;;13.96;100.00;100785.56;6101096;23;20063;-69
2023/07/27 02:13:01;;;;;;;9.52;7.43;;;;;;;13.96;100.00;100785.56;6125661;23;20132;-69
2023/07/27 02:15:32;;;;;;;9.52;7.07;;;;;;;13.90;100.00;100776.97;6126248;23;20006;-69
2023/07/27 02:18:14;;;;;;;10.57;8.20;;;;;;;13.86;100.00;100769.16;6124277;23;20113;-69
2023/07/27 02:20:41;;;;;;;8.80;7.85;;;;;;;13.80;100.00;100764.03;6125540;23;20006;-69
2023/07/27 02:23:07;;;;;;;11.35;7.63;;;;;;;13.75;100.00;100744.00;6101104;23;20006;-69
2023/07/27 02:25:33;;;;;;;9.68;7.68;;;;;;;13.76;100.00;100753.63;6124712;23;20084;-69
2023/07/27 02:27:59;;;;;;;9.73;7.72;;;;;;;13.72;100.00;100734.44;6124879;23;20002;-69
2023/07/27 02:30:25;;;;;;;10.35;7.93;;;;;;;13.72;100.00;100734.44;6075958;23;20037;-69
2023/07/27 02:32:50;;;;;;;11.00;8.05;;;;;;;13.74;100.00;100724.72;6101258;23;20014;-69
2023/07/27 02:35:16;;;;;;;8.88;7.88;;;;;;;13.75;100.00;100725.56;6076672;23;20086;-70
2023/07/27 02:37:41;;;;;;;8.50;7.45;;;;;;;13.73;100.00;100724.75;6100642;23;20020;-70
2023/07/27 02:40:09;;;;;;;10.93;7.88;;;;;;;13.73;100.00;100730.88;6125339;23;20010;-69
2023/07/27 02:42:35;;;;;;;10.45;7.57;;;;;;;13.74;100.00;100726.50;6100922;23;20009;-69
2023/07/27 02:45:00;;;;;;;11.20;8.07;;;;;;;13.75;100.00;100720.28;6076234;23;20109;-69
2023/07/27 02:47:25;;;;;;;9.80;7.82;;;;;;;13.72;100.00;100716.00;6099625;23;20097;-69
2023/07/27 02:49:51;;;;;;;11.57;8.20;;;;;;;13.75;100.00;100709.75;6076838;23;20033;-69
2023/07/27 02:52:16;;;;;;;9.05;7.88;;;;;;;13.70;100.00;100704.63;6101211;23;20401;-69
2023/07/27 02:54:42;;;;;;;11.43;7.63;;;;;;;13.73;100.00;100698.41;6101036;23;20096;-69
2023/07/27 02:57:07;;;;;;;9.23;7.43;;;;;;;13.66;100.00;100687.19;6075786;23;20010;-69
2023/07/27 02:59:33;;;;;;;11.40;7.75;;;;;;;13.67;100.00;100689.75;6125299;23;20041;-69
2023/07/27 03:01:58;;;;;;;9.73;7.50;;;;;;;13.68;100.00;100685.38;6124427;23;20021;-69
2023/07/27 03:04:24;;;;;;;9.25;7.35;;;;;;;13.66;100.00;100681.91;6100393;23;20018;-69
2023/07/27 03:06:49;;;;;;;10.25;8.35;;;;;;;13.63;100.00;100696.03;6075875;23;20336;-69
2023/07/27 03:09:15;;;;;;;12.23;8.40;;;;;;;13.61;100.00;100682.03;6100730;23;20005;-69
2023/07/27 03:11:40;;;;;;;12.35;8.93;;;;;;;13.63;100.00;100687.25;6126634;23;20010;-69
2023/07/27 03:14:06;;;;;;;10.68;8.25;;;;;;;13.60;100.00;100684.72;6100667;23;20422;-69
2023/07/27 03:16:32;;;;;;;11.60;7.93;;;;;;;13.58;100.00;100673.38;6075422;23;20297;-70
2023/07/27 03:18:57;;;;;;;9.85;8.80;;;;;;;13.59;100.00;100667.19;6125048;23;20001;-70
2023/07/27 03:21:23;;;;;;;9.77;8.75;;;;;;;13.59;100.00;100664.56;6076776;23;20006;-70
2023/07/27 03:23:49;;;;;;;10.65;8.00;;;;;;;13.58;100.00;100663.69;6125142;23;20041;-69
2023/07/27 03:26:15;;;;;;;11.52;9.27;;;;;;;13.56;100.00;100659.38;6125983;23;20012;-69
2023/07/27 03:28:41;;;;;;;12.40;9.18;;;;;;;13.54;100.00;100648.88;6076806;23;20017;-69
2023/07/27 03:31:23;;;;;;;12.50;9.27;;;;;;;13.53;100.00;100649.78;6099895;23;20010;-69
2023/07/27 03:33:50;;;;;;;11.93;9.20;;;;;;;13.49;100.00;100635.84;6125080;23;20302;-69
2023/07/27 03:36:17;;;;;;;12.10;9.35;;;;;;;13.47;100.00;100634.16;6124229;23;20029;-69
2023/07/27 03:38:42;;;;;;;12.13;9.50;;;;;;;13.47;100.00;100623.63;6076474;23;20165;-69
2023/07/27 03:41:08;;;;;;;11.20;8.57;;;;;;;13.44;100.00;100608.78;6124740;23;20433;-68
2023/07/27 03:43:33;;;;;;;13.52;9.35;;;;;;;13.44;100.00;100603.50;6076156;23;20022;-69
2023/07/27 03:45:59;;;;;;;13.02;9.40;;;;;;;13.42;100.00;100589.56;6099726;23;20053;-68
2023/07/27 03:48:25;;;;;;;12.13;9.60;;;;;;;13.41;100.00;100581.69;6124286;23;20029;-69
2023/07/27 03:50:54;;;;;;;10.82;9.35;;;;;;;13.40;100.00;100580.81;6100469;23;20021;-68
2023/07/27 03:53:22;;;;;;;12.65;10.10;;;;;;;13.39;100.00;100576.47;6100965;23;20130;-68
2023/07/27 03:55:47;;;;;;;13.90;10.07;;;;;;;13.38;100.00;100568.63;6076017;23;20459;-68
2023/07/27 03:58:13;;;;;;;14.00;10.50;;;;;;;13.38;100.00;100577.38;6075504;23;20006;-68
2023/07/27 04:00:38;;;;;;;13.73;10.57;;;;;;;13.38;100.00;100576.53;6073741;23;20450;-68
2023/07/27 04:03:03;;;;;;;11.57;9.52;;;;;;;13.39;100.00;100567.69;6076261;23;20013;-68
2023/07/27 04:05:31;;;;;;;11.35;9.57;;;;;;;13.39;100.00;100558.06;6075587;23;20014;-68
2023/07/27 04:07:57;;;;;;;13.05;10.15;;;;;;;13.39;100.00;100560.69;6100227;23;20005;-69
2023/07/27 04:10:24;;;;;;;12.07;9.70;;;;;;;13.40;100.00;100559.75;6075490;23;20068;-69
2023/07/27 04:12:50;;;;;;;11.15;9.38;;;;;;;13.39;100.00;100558.06;6100389;23;20010;-69
2023/07/27 04:15:15;;;;;;;11.35;9.00;;;;;;;13.41;100.00;100558.88;6099145;23;20421;-69
2023/07/27 04:17:41;;;;;;;10.63;8.55;;;;;;;13.41;100.00;100548.34;6075420;23;20345;-68
2023/07/27 04:20:08;;;;;;;10.20;8.10;;;;;;;13.41;100.00;100550.13;6075618;23;20025;-69
2023/07/27 04:22:33;;;;;;;10.32;8.57;;;;;;;13.42;100.00;100554.44;6100360;23;20006;-69
2023/07/27 04:24:59;;;;;;;9.75;7.90;;;;;;;13.42;100.00;100552.69;6124235;23;20041;-68
2023/07/27 04:27:25;;;;;;;10.10;8.27;;;;;;;13.43;100.00;100546.53;6099665;23;20006;-68
2023/07/27 04:29:50;;;;;;;11.20;8.23;;;;;;;13.45;100.00;100543.88;6123795;23;20080;-68
2023/07/27 04:32:15;;;;;;;9.27;7.28;;;;;;;13.43;100.00;100533.38;6123488;23;20129;-68
2023/07/27 04:34:41;;;;;;;7.93;7.07;;;;;;;13.43;100.00;100528.13;6076178;23;20153;-69
2023/07/27 04:37:06;;;;;;;9.15;7.72;;;;;;;13.44;100.00;100535.09;6075341;23;20009;-68
2023/07/27 04:39:32;;;;;;;10.90;7.55;;;;;;;13.45;100.00;100530.69;6076124;23;20082;-69
2023/07/27 04:41:57;;;;;;;8.93;7.45;;;;;;;13.43;100.00;100525.47;6099802;23;20048;-69
2023/07/27 04:44:23;;;;;;;8.60;7.28;;;;;;;13.42;100.00;100510.59;6099579;23;20048;-69
2023/07/27 04:46:48;;;;;;;8.23;7.20;;;;;;;13.42;100.00;100509.72;6099454;23;20006;-69
2023/07/27 04:49:13;;;;;;;8.73;7.65;;;;;;;13.43;100.00;100508.81;6098834;23;20057;-68
2023/07/27 04:51:39;;;;;;;9.65;7.57;;;;;;;13.42;100.00;100505.31;6099617;23;20080;-69
2023/07/27 04:54:04;;;;;;;10.07;7.18;;;;;;;13.40;100.00;100501.84;6099848;23;20012;-68
2023/07/27 04:56:31;;;;;;;9.07;7.75;;;;;;;13.42;100.00;100496.53;6124090;23;20420;-69
2023/07/27 04:58:57;;;;;;;8.80;7.30;;;;;;;13.41;100.00;100493.06;6075282;23;20013;-69
2023/07/27 05:01:22;;;;;;;8.98;7.22;;;;;;;13.44;100.00;100485.06;6122384;23;20446;-68
2023/07/27 05:03:48;;;;;;;8.05;7.25;;;;;;;13.45;100.00;100499.13;6130360;23;20087;-68
2023/07/27 05:06:34;;;;;;;8.75;7.32;;;;;;;13.46;100.00;100495.56;6130501;23;20029;-68
2023/07/27 05:09:00;;;;;;;9.00;7.18;;;;;;;13.39;100.00;100484.38;6139377;23;20017;-68
2023/07/27 05:11:27;;;;;;;9.40;7.30;;;;;;;13.46;100.00;100487.66;6128573;23;20013;-68
2023/07/27 06:21:14;;;;;;;4.18;3.78;;;;;;;14.22;100.00;100422.94;6179781;23;20053;-67
2023/07/27 06:23:40;;;;;;;4.47;3.90;;;;;;;14.26;100.00;100414.03;6129522;23;20021;-69
2023/07/27 06:26:05;;;;;;;4.43;3.65;;;;;;;14.32;100.00;100412.97;6103350;23;20021;-69
2023/07/27 06:29:09;;;;;;;4.22;3.83;;;;;;;14.37;100.00;100413.69;6101325;23;20013;-70
2023/07/27 06:31:34;;;;;;;4.32;3.85;;;;;;;14.40;100.00;100410.94;6126287;23;20010;-69
2023/07/27 06:34:00;;;;;;;4.57;3.95;;;;;;;14.47;100.00;100412.44;6127512;23;20067;-69
2023/07/27 06:36:25;;;;;;;4.38;3.80;;;;;;;14.50;100.00;100416.75;6102753;23;20079;-68
2023/07/27 06:38:50;;;;;;;4.40;3.83;;;;;;;14.57;100.00;100412.97;6128230;23;20012;-69
2023/07/27 06:41:17;;;;;;;4.03;3.65;;;;;;;14.63;100.00;100409.31;6128171;23;20373;-69
2023/07/27 06:43:42;;;;;;;4.13;3.70;;;;;;;14.65;100.00;100396.91;6105074;23;20021;-69
2023/07/27 06:46:07;;;;;;;3.55;3.25;;;;;;;14.71;100.00;100399.31;6104737;23;20450;-69
2023/07/27 06:48:34;;;;;;;3.65;3.35;;;;;;;14.76;100.00;100401.81;6105169;23;20013;-69
2023/07/27 06:51:00;;;;;;;3.20;2.90;;;;;;;14.80;100.00;100404.28;6104676;23;20108;-68
2023/07/27 06:53:25;;;;;;;4.07;3.05;;;;;;;14.85;100.00;100391.75;6130357;23;20092;-68
2023/07/27 06:55:50;;;;;;;3.10;2.90;;;;;;;14.89;100.00;100398.66;6129467;23;20020;-69
2023/07/27 06:58:16;;;;;;;4.18;3.10;;;;;;;14.94;100.00;100397.63;6105217;23;20056;-68
2023/07/27 07:00:42;;;;;;;3.15;2.78;;;;;;;14.97;100.00;100395.75;6125099;23;20056;-69
2023/07/27 07:03:07;;;;;;;3.30;3.00;;;;;;;14.99;100.00;100391.25;6104398;23;20044;-69
2023/07/27 07:05:32;;;;;;;3.28;2.80;;;;;;;15.03;100.00;100403.44;6128773;23;20040;-69
2023/07/27 07:07:58;;;;;;;2.78;2.58;;;;;;;15.05;100.00;100396.31;6105011;23;20013;-69
2023/07/27 07:10:23;;;;;;;3.03;2.83;;;;;;;15.12;100.00;100393.44;6103485;23;20014;-70
2023/07/27 07:12:49;;;;;;;3.50;2.95;;;;;;;15.18;100.00;100390.56;6128456;23;20084;-70
2023/07/27 07:15:25;;;;;;;2.50;2.30;;;;;;;15.18;100.00;100399.34;6126656;23;20017;-70
2023/07/27 07:17:51;;;;;;;3.60;2.95;;;;;;;15.21;100.00;100399.25;6128249;23;20019;-70
2023/07/27 07:20:16;;;;;;;3.10;2.80;;;;;;;15.28;100.00;100396.38;6102602;23;20108;-70
2023/07/27 07:22:42;;;;;;;3.00;2.70;;;;;;;15.31;100.00;100401.53;6128394;23;20101;-70
2023/07/27 07:25:07;;;;;;;3.53;3.00;;;;;;;15.32;100.00;100401.47;6102377;23;20379;-70
2023/07/27 07:27:33;;;;;;;3.42;2.67;;;;;;;15.37;100.00;100396.00;6104546;23;20014;-70
2023/07/27 07:30:59;;;;;;;;;;;;;;;;;;;;;
2023/07/27 07:36:27;;;;;;;2.85;2.65;;;;;;;15.52;100.00;100391.91;6175616;23;20028;-70
2023/07/27 07:38:52;;;;;;;2.85;2.65;;;;;;;15.56;100.00;100388.25;6154736;23;20024;-70
2023/07/27 07:41:18;;;;;;;3.60;3.30;;;;;;;15.60;100.00;100384.53;6132422;23;20020;-68
2023/07/27 07:43:43;;;;;;;4.10;3.42;;;;;;;15.67;100.00;100388.63;6133709;23;20016;-69
2023/07/27 07:46:13;;;;;;;3.60;3.30;;;;;;;15.72;100.00;100388.47;6128120;23;20056;-69
2023/07/27 07:48:39;;;;;;;3.50;3.20;;;;;;;15.80;100.00;100370.53;6129755;23;20021;-68
2023/07/27 07:51:14;;;;;;;3.10;2.80;;;;;;;15.87;100.00;100372.00;6127630;23;20006;-68
2023/07/27 07:53:40;;;;;;;3.42;3.13;;;;;;;15.90;100.00;100371.03;6129108;23;20091;-69
2023/07/27 07:56:16;;;;;;;3.67;3.35;;;;;;;16.02;100.00;100370.53;6126806;23;20008;-69
2023/07/27 07:58:41;;;;;;;4.15;3.30;;;;;;;16.05;100.00;100372.19;6127685;23;20084;-69
2023/07/27 08:01:07;;;;;;;2.58;2.38;;;;;;;16.07;100.00;100368.53;6127114;23;20405;-69
2023/07/27 08:03:33;;;;;;;3.28;2.97;;;;;;;16.10;100.00;100367.56;6128314;23;20113;-69
2023/07/27 08:05:58;;;;;;;2.83;2.60;;;;;;;16.11;100.00;100364.00;6127980;23;20001;-69
2023/07/27 08:08:25;;;;;;;3.40;3.10;;;;;;;16.16;100.00;100367.31;6127774;23;20009;-68
2023/07/27 08:10:51;;;;;;;3.08;2.88;;;;;;;16.23;100.00;100366.13;6102078;23;20013;-69
2023/07/27 08:13:16;;;;;;;3.10;2.90;;;;;;;16.26;100.00;100365.13;6079101;23;20048;-68
2023/07/27 08:15:57;;;;;;;3.03;2.83;;;;;;;16.30;100.00;100369.34;6102338;23;20061;-69
2023/07/27 08:18:28;;;;;;;3.20;2.88;;;;;;;16.30;100.00;100368.50;6127516;23;20033;-69
2023/07/27 08:21:03;;;;;;;3.28;2.97;;;;;;;16.38;100.00;100364.59;6128727;23;20033;-69
2023/07/27 08:23:28;;;;;;;2.53;2.33;;;;;;;16.35;100.00;100359.44;6128703;23;20006;-68
2023/07/27 08:25:55;;;;;;;2.78;2.00;;;;;;;16.39;100.00;100365.44;6103428;23;20037;-69
2023/07/27 08:28:21;;;;;;;5.25;1.92;;;;;;;16.43;100.00;100367.03;6103705;23;20006;-69
2023/07/27 08:30:48;;;;;;;2.03;1.83;;;;;;;16.48;100.00;100364.19;6102942;23;20032;-69
2023/07/27 08:33:13;;;;;;;2.20;2.00;;;;;;;16.56;100.00;100360.25;6154832;23;20262;-69
2023/07/27 08:35:39;;;;;;;2.20;2.00;;;;;;;16.62;100.00;100365.31;6127946;23;20052;-68
2023/07/27 08:38:05;;;;;;;2.30;2.08;;;;;;;16.71;100.00;100363.19;6102973;23;20100;-69
2023/07/27 08:40:30;;;;;;;1.80;1.70;;;;;;;16.76;100.00;100362.00;6103190;23;20009;-69
2023/07/27 08:42:56;;;;;;;2.00;1.90;;;;;;;16.78;100.00;100356.69;6126919;23;20009;-68
2023/07/27 08:45:21;;;;;;;2.13;1.92;;;;;;;16.87;100.00;100350.97;6078240;23;20387;-69
2023/07/27 08:47:49;;;;;;;2.00;1.90;;;;;;;16.93;100.00;100348.06;6128081;23;20021;-69
2023/07/27 08:50:15;;;;;;;2.10;1.98;;;;;;;17.07;100.00;100350.06;6151613;23;20033;-68
2023/07/27 08:52:41;;;;;;;2.70;2.50;;;;;;;17.05;100.00;100351.94;6103838;23;20006;-69
2023/07/27 08:55:07;;;;;;;2.75;2.55;;;;;;;17.13;100.00;100351.56;6103441;23;20017;-69
2023/07/27 08:57:33;;;;;;;4.03;3.05;;;;;;;17.19;100.00;100355.72;6078657;23;20021;-69
2023/07/27 08:59:59;;;;;;;3.03;2.83;;;;;;;17.27;100.00;100349.13;6078242;23;20441;-69
2023/07/27 09:02:25;;;;;;;3.55;3.10;;;;;;;17.30;100.00;100346.34;6127047;23;20017;-68
2023/07/27 09:04:50;;;;;;;3.40;3.10;;;;;;;17.46;100.00;100340.31;6077297;23;20025;-69
2023/07/27 09:07:16;;;;;;;2.63;2.42;;;;;;;17.49;100.00;100345.44;6101797;23;20384;-69
2023/07/27 09:09:41;;;;;;;2.85;1.95;;;;;;;17.61;100.00;100342.22;6104340;23;20105;-69
2023/07/27 09:12:07;;;;;;;2.90;2.22;;;;;;;17.60;100.00;100350.25;6127289;23;20085;-70
2023/07/27 09:14:37;;;;;;;2.00;1.90;;;;;;;17.52;100.00;100347.09;6128284;23;20082;-70
2023/07/27 09:17:03;;;;;;;2.50;2.30;;;;;;;17.54;100.00;100348.75;6102348;23;20325;-70
2023/07/27 09:19:50;;;;;;;1.73;1.63;;;;;;;17.55;100.00;100355.75;6128313;23;20017;-70
2023/07/27 09:22:16;;;;;;;2.10;1.90;;;;;;;17.53;100.00;100349.66;6128496;23;19998;-70
2023/07/27 09:24:41;;;;;;;2.10;1.50;;;;;;;17.50;100.00;100341.88;6128070;23;20009;-70
2023/07/27 09:27:13;;;;;;;1.60;1.50;;;;;;;17.57;100.00;100348.59;6101271;23;20317;-70
2023/07/27 09:29:40;;;;;;;1.73;1.60;;;;;;;17.62;100.00;100348.34;6127076;23;20036;-70
2023/07/27 09:32:09;;;;;;;1.90;1.55;;;;;;;17.66;100.00;100344.63;6126894;23;20009;-70
2023/07/27 09:34:34;;;;;;;1.70;1.60;;;;;;;17.71;100.00;100331.16;6126393;23;20015;-71
2023/07/27 09:37:05;;;;;;;2.17;1.42;;;;;;;17.73;100.00;100337.22;6098667;23;20022;-70
2023/07/27 09:39:42;;;;;;;1.83;1.60;;;;;;;17.73;100.00;100347.81;6098232;23;20014;-70
2023/07/27 09:42:10;;;;;;;2.00;1.90;;;;;;;17.74;100.00;100344.25;6101182;23;20013;-70
2023/07/27 09:44:47;;;;;;;1.42;1.33;;;;;;;17.76;100.00;100343.25;6123060;23;20017;-71
2023/07/27 09:47:23;;;;;;;1.90;1.63;;;;;;;17.91;100.00;100346.09;6145910;23;20421;-70
2023/07/27 09:49:50;;;;;;;1.77;1.45;;;;;;;17.78;100.00;100340.50;6122836;23;20436;-70
2023/07/27 09:52:19;;;;;;;1.98;1.50;;;;;;;17.73;100.00;100343.41;6097099;23;20017;-70
2023/07/27 09:54:47;;;;;;;2.47;1.30;;;;;;;17.72;100.00;100336.38;6123768;23;20006;-70
2023/07/27 09:57:13;;;;;;;1.70;1.38;;;;;;;17.80;100.00;100343.91;6122093;23;20010;-70
2023/07/27 09:59:40;;;;;;;2.15;1.50;;;;;;;17.81;100.00;100340.34;6122337;23;20020;-70
2023/07/27 10:02:06;;;;;;;1.98;1.40;;;;;;;17.79;100.00;100336.94;6122076;23;20002;-70
2023/07/27 10:04:31;;;;;;;1.70;1.20;;;;;;;17.83;100.00;100349.09;6098799;23;20122;-70
2023/07/27 10:06:57;;;;;;;2.55;1.42;;;;;;;17.78;100.00;100343.16;6072125;23;20017;-71
2023/07/27 10:09:25;;;;;;;1.75;1.45;;;;;;;17.73;100.00;100339.88;6097651;23;20121;-69
2023/07/27 10:11:56;;;;;;;1.15;1.02;;;;;;;17.69;100.00;100347.13;6100310;23;20073;-69
2023/07/27 10:14:24;;;;;;;1.70;1.40;;;;;;;17.74;100.00;100344.25;6123556;23;20064;-69
2023/07/27 10:17:16;;;;;;;1.75;1.50;;;;;;;17.89;100.00;100332.88;6148248;23;20009;-69
2023/07/27 10:19:43;;;;;;;2.13;1.38;;;;;;;17.91;100.00;100346.09;6095468;23;20017;-69
2023/07/27 10:22:14;;;;;;;2.13;1.65;;;;;;;18.00;100.00;100345.59;6124341;23;20060;-69
2023/07/27 10:24:53;;;;;;;3.17;1.40;;;;;;;18.03;100.00;100349.91;6120179;23;20048;-69
2023/07/27 10:27:20;;;;;;;1.57;1.47;;;;;;;18.05;100.00;100342.75;6098071;23;20010;-70
2023/07/27 10:30:13;;;;;;;0.90;0.90;;;;;;;18.13;100.00;100346.72;6099370;23;20014;-69
2023/07/27 10:32:43;;;;;;;1.90;1.50;;;;;;;18.09;100.00;100344.31;6123267;23;20009;-69
2023/07/27 10:35:09;;;;;;;1.42;1.33;;;;;;;18.15;100.00;100344.00;6145958;23;20021;-70
2023/07/27 10:37:55;;;;;;;1.70;1.60;;;;;;;18.24;100.00;100346.16;6099691;23;20014;-69
2023/07/27 10:40:25;;;;;;;1.15;1.10;;;;;;;18.15;100.00;100342.19;6100563;23;20347;-69
2023/07/27 10:42:58;;;;;;;1.13;0.95;;;;;;;18.10;100.00;100346.00;6098062;23;20295;-69
2023/07/27 10:45:28;;;;;;;1.10;1.00;;;;;;;18.08;100.00;100342.59;6097967;23;20093;-69
2023/07/27 10:47:57;;;;;;;1.47;1.30;;;;;;;18.21;100.00;100343.66;6123467;23;20017;-69
2023/07/27 10:50:23;;;;;;;3.05;1.48;;;;;;;18.15;100.00;100351.94;6096140;23;20444;-69
2023/07/27 10:52:53;;;;;;;2.15;1.10;;;;;;;18.14;100.00;100350.22;6147736;23;20010;-69
2023/07/27 10:55:24;;;;;;;1.60;1.50;;;;;;;18.19;100.00;100345.53;6147620;23;20446;-69
2023/07/27 10:57:53;;;;;;;1.60;1.50;;;;;;;18.15;100.00;100349.28;6146191;23;20006;-69
2023/07/27 11:00:18;;;;;;;1.30;1.20;;;;;;;18.13;100.00;100349.38;6144667;23;20010;-69
2023/07/27 11:02:44;;;;;;;2.90;1.40;;;;;;;18.12;100.00;100344.16;6121542;23;20089;-69
2023/07/27 11:05:12;;;;;;;2.35;1.45;;;;;;;18.18;100.00;100349.13;6097837;23;20041;-69
2023/07/27 11:07:40;;;;;;;1.50;1.40;;;;;;;18.18;100.00;100349.13;6148259;23;20009;-69
2023/07/27 11:10:08;;;;;;;2.20;1.48;;;;;;;18.18;100.00;100354.44;6120753;23;20441;-69
2023/07/27 11:12:53;;;;;;;2.20;1.40;;;;;;;18.28;100.00;100349.50;6123562;23;20010;-69
2023/07/27 11:15:21;;;;;;;1.42;1.33;;;;;;;18.34;100.00;100347.38;6146742;23;20010;-69
2023/07/27 11:17:48;;;;;;;1.88;1.40;;;;;;;18.24;100.00;100356.75;6145597;23;20010;-70
2023/07/27 11:20:18;;;;;;;2.35;1.17;;;;;;;18.25;100.00;100347.88;6095338;23;20082;-69
2023/07/27 11:22:45;;;;;;;1.65;1.00;;;;;;;18.29;100.00;100344.13;6146996;23;20009;-69
2023/07/27 11:25:11;;;;;;;1.38;1.27;;;;;;;18.37;100.00;100335.75;6118248;23;20439;-69
2023/07/27 11:27:40;;;;;;;1.58;1.30;;;;;;;18.30;100.00;100335.25;6121420;23;20005;-69
2023/07/27 11:30:09;;;;;;;1.02;0.95;;;;;;;18.31;100.00;100338.75;6145169;23;20008;-69
2023/07/27 11:32:35;;;;;;;1.40;1.30;;;;;;;18.34;100.00;100334.13;6144463;23;20009;-69
2023/07/27 11:35:00;;;;;;;1.63;1.10;;;;;;;18.49;100.00;100337.78;6124385;23;20271;-69
2023/07/27 11:37:30;;;;;;;1.70;1.13;;;;;;;18.50;100.00;100339.50;6125539;23;20424;-69
2023/07/27 11:39:56;;;;;;;1.40;1.30;;;;;;;18.57;100.00;100333.88;6125645;23;20005;-69
2023/07/27 11:42:30;;;;;;;2.60;0.90;;;;;;;18.52;100.00;100336.75;6123842;23;20017;-68
2023/07/27 11:44:57;;;;;;;1.20;1.10;;;;;;;18.48;100.00;100329.91;6151804;23;20104;-69
2023/07/27 11:47:23;;;;;;;1.65;1.23;;;;;;;18.46;100.00;100331.75;6126145;23;20009;-69
2023/07/27 11:49:50;;;;;;;1.52;1.30;;;;;;;18.46;100.00;100331.75;6128250;23;20021;-69
2023/07/27 11:52:20;;;;;;;1.00;0.88;;;;;;;18.46;100.00;100331.75;6100827;23;20009;-69
2023/07/27 11:54:50;;;;;;;1.95;1.08;;;;;;;18.51;100.00;100335.03;6152327;23;20005;-68
2023/07/27 11:57:15;;;;;;;0.90;0.90;;;;;;;18.49;100.00;100336.94;6128853;23;20047;-69
2023/07/27 11:59:41;;;;;;;0.90;0.90;;;;;;;18.52;100.00;100334.13;6153047;23;20092;-69
2023/07/27 12:02:06;;;;;;;0.90;0.65;;;;;;;18.48;100.00;100330.75;6078576;23;20099;-69
2023/07/27 12:04:32;;;;;;;1.13;0.90;;;;;;;18.58;100.00;100333.78;6128450;23;20013;-69
2023/07/27 12:06:57;;;;;;;1.55;0.85;;;;;;;18.60;100.00;100333.69;6103425;23;20072;-69
2023/07/27 12:09:23;;;;;;;1.63;0.90;;;;;;;18.63;100.00;100334.41;6102763;23;20156;-69
2023/07/27 12:11:48;;;;;;;1.50;1.00;;;;;;;18.62;100.00;100339.75;6103083;23;20014;-69
2023/07/27 12:14:22;;;;;;;1.48;0.90;;;;;;;18.60;100.00;100333.69;6128045;23;20013;-69
2023/07/27 12:16:48;;;;;;;2.00;1.00;;;;;;;18.64;100.00;100340.56;6126310;23;20325;-69
2023/07/27 12:19:13;;;;;;;0.93;0.93;;;;;;;18.73;100.00;100340.03;6126939;23;20005;-68
2023/07/27 12:21:39;;;;;;;1.20;1.08;;;;;;;18.66;100.00;100344.84;6124257;23;20391;-69
2023/07/27 12:24:09;;;;;;;0.90;0.90;;;;;;;18.67;100.00;100341.22;6124982;23;20013;-69
2023/07/27 12:26:38;;;;;;;1.08;1.05;;;;;;;18.80;100.00;100340.59;6124162;23;20037;-69
2023/07/27 12:29:04;;;;;;;2.05;1.20;;;;;;;18.92;100.00;100334.66;6102873;23;20403;-69
2023/07/27 12:31:30;;;;;;;1.05;1.05;;;;;;;18.95;100.00;100333.59;6126242;23;20013;-69
2023/07/27 12:33:56;;;;;;;1.40;1.30;;;;;;;19.06;100.00;100327.72;6125275;23;20436;-70
2023/07/27 12:36:21;;;;;;;1.25;1.15;;;;;;;19.18;100.00;100332.34;6102797;23;20092;-71